sensor_id;sensor_type;location;lat;lon;timestamp;P1;durP1;ratioP1;P2;durP2;ratioP2
41275;SDS011;27010;47.718;12.912;2022-11-20T00:02:39;2.00;;;1.00;;
41275;SDS011;27010;47.718;12.912;2022-11-20T00:05:41;0.80;;;0.70;;
41275;SDS011;27010;47.718;12.912;2022-11-20T00:08:43;1.23;;;0.80;;
41275;SDS011;27010;47.718;12.912;2022-11-20T00:11:45;2.37;;;1.20;;
41275;SDS011;27010;47.718;12.912;2022-11-20T00:14:47;0.80;;;0.80;;
41275;SDS011;27010;47.718;12.912;2022-11-20T00:17:49;1.23;;;1.00;;
41275;SDS011;27010;47.718;12.912;2022-11-20T00:20:51;1.60;;;1.10;;
41275;SDS011;27010;47.718;12.912;2022-11-20T00:23:54;2.23;;;0.97;;
41275;SDS011;27010;47.718;12.912;2022-11-20T00:26:57;2.53;;;0.70;;
41275;SDS011;27010;47.718;12.912;2022-11-20T00:29:59;1.30;;;0.70;;
41275;SDS011;27010;47.718;12.912;2022-11-20T00:33:01;0.90;;;0.77;;
41275;SDS011;27010;47.718;12.912;2022-11-20T00:36:04;4.23;;;1.00;;
41275;SDS011;27010;47.718;12.912;2022-11-20T00:39:07;2.23;;;0.80;;
41275;SDS011;27010;47.718;12.912;2022-11-20T00:42:10;0.90;;;0.60;;
41275;SDS011;27010;47.718;12.912;2022-11-20T00:45:12;0.80;;;0.80;;
41275;SDS011;27010;47.718;12.912;2022-11-20T00:48:13;1.00;;;0.70;;
41275;SDS011;27010;47.718;12.912;2022-11-20T00:51:16;3.63;;;1.33;;
41275;SDS011;27010;47.718;12.912;2022-11-20T00:54:20;2.03;;;0.90;;
41275;SDS011;27010;47.718;12.912;2022-11-20T00:57:21;1.77;;;1.03;;
41275;SDS011;27010;47.718;12.912;2022-11-20T01:00:23;2.40;;;0.90;;
41275;SDS011;27010;47.718;12.912;2022-11-20T01:03:25;0.87;;;0.70;;
41275;SDS011;27010;47.718;12.912;2022-11-20T01:06:29;1.83;;;0.80;;
41275;SDS011;27010;47.718;12.912;2022-11-20T01:09:32;1.93;;;0.90;;
41275;SDS011;27010;47.718;12.912;2022-11-20T01:12:34;3.10;;;0.67;;
41275;SDS011;27010;47.718;12.912;2022-11-20T01:15:36;2.77;;;1.00;;
41275;SDS011;27010;47.718;12.912;2022-11-20T01:18:39;2.53;;;1.17;;
41275;SDS011;27010;47.718;12.912;2022-11-20T01:21:42;1.43;;;0.80;;
41275;SDS011;27010;47.718;12.912;2022-11-20T01:24:45;2.83;;;1.00;;
41275;SDS011;27010;47.718;12.912;2022-11-20T01:27:47;2.67;;;1.47;;
41275;SDS011;27010;47.718;12.912;2022-11-20T01:30:49;1.20;;;0.80;;
41275;SDS011;27010;47.718;12.912;2022-11-20T01:33:52;1.90;;;1.00;;
41275;SDS011;27010;47.718;12.912;2022-11-20T01:36:56;1.10;;;0.70;;
41275;SDS011;27010;47.718;12.912;2022-11-20T01:39:58;3.27;;;1.03;;
41275;SDS011;27010;47.718;12.912;2022-11-20T01:43:06;1.20;;;0.77;;
41275;SDS011;27010;47.718;12.912;2022-11-20T01:46:24;2.40;;;0.80;;
41275;SDS011;27010;47.718;12.912;2022-11-20T01:49:28;1.90;;;1.03;;
41275;SDS011;27010;47.718;12.912;2022-11-20T01:52:56;1.57;;;0.90;;
41275;SDS011;27010;47.718;12.912;2022-11-20T01:56:01;2.63;;;0.93;;
41275;SDS011;27010;47.718;12.912;2022-11-20T01:59:05;1.17;;;0.90;;
41275;SDS011;27010;47.718;12.912;2022-11-20T02:02:08;2.70;;;0.80;;
41275;SDS011;27010;47.718;12.912;2022-11-20T02:08:25;2.87;;;1.00;;
41275;SDS011;27010;47.718;12.912;2022-11-20T02:11:29;2.33;;;0.90;;
41275;SDS011;27010;47.718;12.912;2022-11-20T02:14:32;1.03;;;0.83;;
41275;SDS011;27010;47.718;12.912;2022-11-20T02:17:34;2.90;;;1.07;;
41275;SDS011;27010;47.718;12.912;2022-11-20T02:20:36;2.60;;;1.00;;
41275;SDS011;27010;47.718;12.912;2022-11-20T02:27:09;4.87;;;1.13;;
41275;SDS011;27010;47.718;12.912;2022-11-20T02:30:14;1.80;;;1.23;;
41275;SDS011;27010;47.718;12.912;2022-11-20T02:33:16;1.17;;;0.80;;
41275;SDS011;27010;47.718;12.912;2022-11-20T02:36:19;0.57;;;0.57;;
41275;SDS011;27010;47.718;12.912;2022-11-20T02:39:21;1.67;;;1.10;;
41275;SDS011;27010;47.718;12.912;2022-11-20T02:42:26;1.23;;;1.00;;
41275;SDS011;27010;47.718;12.912;2022-11-20T02:45:29;1.87;;;0.80;;
41275;SDS011;27010;47.718;12.912;2022-11-20T02:48:31;0.90;;;0.70;;
41275;SDS011;27010;47.718;12.912;2022-11-20T02:51:34;1.87;;;0.83;;
41275;SDS011;27010;47.718;12.912;2022-11-20T02:54:36;2.40;;;1.00;;
41275;SDS011;27010;47.718;12.912;2022-11-20T02:57:38;1.63;;;0.90;;
41275;SDS011;27010;47.718;12.912;2022-11-20T03:00:40;1.53;;;0.93;;
41275;SDS011;27010;47.718;12.912;2022-11-20T03:03:42;2.77;;;0.90;;
41275;SDS011;27010;47.718;12.912;2022-11-20T03:06:44;0.80;;;0.50;;
41275;SDS011;27010;47.718;12.912;2022-11-20T03:09:46;1.53;;;0.80;;
41275;SDS011;27010;47.718;12.912;2022-11-20T03:12:53;1.47;;;1.10;;
41275;SDS011;27010;47.718;12.912;2022-11-20T03:15:57;4.93;;;0.87;;
41275;SDS011;27010;47.718;12.912;2022-11-20T03:19:00;2.87;;;0.80;;
41275;SDS011;27010;47.718;12.912;2022-11-20T03:22:03;0.80;;;0.80;;
41275;SDS011;27010;47.718;12.912;2022-11-20T03:25:05;0.83;;;0.50;;
41275;SDS011;27010;47.718;12.912;2022-11-20T03:28:07;2.17;;;0.80;;
41275;SDS011;27010;47.718;12.912;2022-11-20T03:31:10;2.30;;;1.10;;
41275;SDS011;27010;47.718;12.912;2022-11-20T03:34:14;1.53;;;1.13;;
41275;SDS011;27010;47.718;12.912;2022-11-20T03:37:16;1.80;;;0.90;;
41275;SDS011;27010;47.718;12.912;2022-11-20T03:40:18;1.23;;;0.87;;
41275;SDS011;27010;47.718;12.912;2022-11-20T03:43:20;1.17;;;1.03;;
41275;SDS011;27010;47.718;12.912;2022-11-20T03:46:22;1.13;;;0.93;;
41275;SDS011;27010;47.718;12.912;2022-11-20T03:49:25;1.73;;;1.00;;
41275;SDS011;27010;47.718;12.912;2022-11-20T03:52:27;2.17;;;0.90;;
41275;SDS011;27010;47.718;12.912;2022-11-20T03:55:29;1.23;;;0.87;;
41275;SDS011;27010;47.718;12.912;2022-11-20T03:58:32;1.17;;;0.60;;
41275;SDS011;27010;47.718;12.912;2022-11-20T04:01:36;1.00;;;0.80;;
41275;SDS011;27010;47.718;12.912;2022-11-20T04:04:39;4.13;;;0.90;;
41275;SDS011;27010;47.718;12.912;2022-11-20T04:07:41;2.37;;;0.63;;
41275;SDS011;27010;47.718;12.912;2022-11-20T04:10:44;0.87;;;0.70;;
41275;SDS011;27010;47.718;12.912;2022-11-20T04:13:48;2.57;;;0.93;;
41275;SDS011;27010;47.718;12.912;2022-11-20T04:16:54;0.80;;;0.77;;
41275;SDS011;27010;47.718;12.912;2022-11-20T04:19:57;1.27;;;0.90;;
41275;SDS011;27010;47.718;12.912;2022-11-20T04:22:59;1.70;;;1.60;;
41275;SDS011;27010;47.718;12.912;2022-11-20T04:26:04;1.50;;;1.20;;
41275;SDS011;27010;47.718;12.912;2022-11-20T04:29:10;1.23;;;1.13;;
41275;SDS011;27010;47.718;12.912;2022-11-20T04:32:13;3.10;;;1.10;;
41275;SDS011;27010;47.718;12.912;2022-11-20T04:35:15;2.53;;;1.70;;
41275;SDS011;27010;47.718;12.912;2022-11-20T04:38:17;4.57;;;1.17;;
41275;SDS011;27010;47.718;12.912;2022-11-20T04:41:20;3.43;;;1.20;;
41275;SDS011;27010;47.718;12.912;2022-11-20T04:44:23;1.07;;;0.90;;
41275;SDS011;27010;47.718;12.912;2022-11-20T04:47:25;0.70;;;0.70;;
41275;SDS011;27010;47.718;12.912;2022-11-20T04:50:27;1.27;;;0.80;;
41275;SDS011;27010;47.718;12.912;2022-11-20T04:53:29;2.30;;;0.70;;
41275;SDS011;27010;47.718;12.912;2022-11-20T04:56:32;1.80;;;0.80;;
41275;SDS011;27010;47.718;12.912;2022-11-20T04:59:34;1.73;;;0.87;;
41275;SDS011;27010;47.718;12.912;2022-11-20T05:02:36;1.10;;;1.00;;
41275;SDS011;27010;47.718;12.912;2022-11-20T05:05:38;1.23;;;0.73;;
41275;SDS011;27010;47.718;12.912;2022-11-20T05:08:40;0.93;;;0.80;;
41275;SDS011;27010;47.718;12.912;2022-11-20T05:11:42;2.80;;;1.20;;
41275;SDS011;27010;47.718;12.912;2022-11-20T05:14:48;2.43;;;0.80;;
41275;SDS011;27010;47.718;12.912;2022-11-20T05:17:50;1.23;;;0.80;;
41275;SDS011;27010;47.718;12.912;2022-11-20T05:20:56;0.67;;;0.63;;
41275;SDS011;27010;47.718;12.912;2022-11-20T05:23:59;1.37;;;0.90;;
41275;SDS011;27010;47.718;12.912;2022-11-20T05:27:01;2.23;;;1.07;;
41275;SDS011;27010;47.718;12.912;2022-11-20T05:30:04;1.13;;;0.70;;
41275;SDS011;27010;47.718;12.912;2022-11-20T05:33:07;0.70;;;0.70;;
41275;SDS011;27010;47.718;12.912;2022-11-20T05:36:09;0.83;;;0.57;;
41275;SDS011;27010;47.718;12.912;2022-11-20T05:39:12;2.83;;;0.63;;
41275;SDS011;27010;47.718;12.912;2022-11-20T05:42:14;0.57;;;0.53;;
41275;SDS011;27010;47.718;12.912;2022-11-20T05:45:34;0.80;;;0.70;;
41275;SDS011;27010;47.718;12.912;2022-11-20T05:48:38;0.70;;;0.50;;
41275;SDS011;27010;47.718;12.912;2022-11-20T05:51:41;2.00;;;1.07;;
41275;SDS011;27010;47.718;12.912;2022-11-20T05:54:43;3.33;;;0.90;;
41275;SDS011;27010;47.718;12.912;2022-11-20T05:57:45;1.00;;;0.90;;
41275;SDS011;27010;47.718;12.912;2022-11-20T06:00:47;1.07;;;0.73;;
41275;SDS011;27010;47.718;12.912;2022-11-20T06:03:49;1.40;;;1.00;;
41275;SDS011;27010;47.718;12.912;2022-11-20T06:06:52;0.80;;;0.60;;
41275;SDS011;27010;47.718;12.912;2022-11-20T06:09:54;0.77;;;0.60;;
41275;SDS011;27010;47.718;12.912;2022-11-20T06:12:59;3.53;;;0.80;;
41275;SDS011;27010;47.718;12.912;2022-11-20T06:16:01;1.30;;;0.80;;
41275;SDS011;27010;47.718;12.912;2022-11-20T06:19:04;0.77;;;0.77;;
41275;SDS011;27010;47.718;12.912;2022-11-20T06:22:06;0.80;;;0.63;;
41275;SDS011;27010;47.718;12.912;2022-11-20T06:25:08;3.10;;;0.87;;
41275;SDS011;27010;47.718;12.912;2022-11-20T06:28:10;1.27;;;1.07;;
41275;SDS011;27010;47.718;12.912;2022-11-20T06:31:13;1.37;;;1.00;;
41275;SDS011;27010;47.718;12.912;2022-11-20T06:34:16;0.93;;;0.90;;
41275;SDS011;27010;47.718;12.912;2022-11-20T06:37:18;2.53;;;0.90;;
41275;SDS011;27010;47.718;12.912;2022-11-20T06:40:21;5.03;;;0.60;;
41275;SDS011;27010;47.718;12.912;2022-11-20T06:43:23;1.43;;;0.80;;
41275;SDS011;27010;47.718;12.912;2022-11-20T06:46:25;2.40;;;0.80;;
41275;SDS011;27010;47.718;12.912;2022-11-20T06:49:27;1.43;;;0.60;;
41275;SDS011;27010;47.718;12.912;2022-11-20T06:52:29;0.80;;;0.70;;
41275;SDS011;27010;47.718;12.912;2022-11-20T06:55:31;1.30;;;0.70;;
41275;SDS011;27010;47.718;12.912;2022-11-20T06:58:34;0.63;;;0.50;;
41275;SDS011;27010;47.718;12.912;2022-11-20T07:01:37;1.63;;;0.90;;
41275;SDS011;27010;47.718;12.912;2022-11-20T07:04:39;1.23;;;0.87;;
41275;SDS011;27010;47.718;12.912;2022-11-20T07:07:41;0.83;;;0.80;;
41275;SDS011;27010;47.718;12.912;2022-11-20T07:10:43;1.87;;;0.60;;
41275;SDS011;27010;47.718;12.912;2022-11-20T07:13:45;0.80;;;0.80;;
41275;SDS011;27010;47.718;12.912;2022-11-20T07:16:47;0.83;;;0.67;;
41275;SDS011;27010;47.718;12.912;2022-11-20T07:19:49;0.80;;;0.63;;
41275;SDS011;27010;47.718;12.912;2022-11-20T07:22:54;1.90;;;1.20;;
41275;SDS011;27010;47.718;12.912;2022-11-20T07:25:57;0.80;;;0.70;;
41275;SDS011;27010;47.718;12.912;2022-11-20T07:28:59;2.37;;;0.80;;
41275;SDS011;27010;47.718;12.912;2022-11-20T07:32:01;0.83;;;0.70;;
41275;SDS011;27010;47.718;12.912;2022-11-20T07:35:04;2.27;;;1.50;;
41275;SDS011;27010;47.718;12.912;2022-11-20T07:38:06;2.97;;;1.30;;
41275;SDS011;27010;47.718;12.912;2022-11-20T07:41:09;1.13;;;0.90;;
41275;SDS011;27010;47.718;12.912;2022-11-20T07:44:10;3.40;;;0.93;;
41275;SDS011;27010;47.718;12.912;2022-11-20T07:47:13;1.00;;;0.70;;
41275;SDS011;27010;47.718;12.912;2022-11-20T07:50:15;1.40;;;0.80;;
41275;SDS011;27010;47.718;12.912;2022-11-20T07:53:17;1.80;;;0.83;;
41275;SDS011;27010;47.718;12.912;2022-11-20T07:56:22;0.50;;;0.50;;
41275;SDS011;27010;47.718;12.912;2022-11-20T07:59:24;1.60;;;0.80;;
41275;SDS011;27010;47.718;12.912;2022-11-20T08:02:26;1.27;;;0.87;;
41275;SDS011;27010;47.718;12.912;2022-11-20T08:05:28;1.17;;;1.00;;
41275;SDS011;27010;47.718;12.912;2022-11-20T08:08:30;2.17;;;1.77;;
41275;SDS011;27010;47.718;12.912;2022-11-20T08:11:34;1.90;;;1.00;;
41275;SDS011;27010;47.718;12.912;2022-11-20T08:14:56;1.43;;;0.80;;
41275;SDS011;27010;47.718;12.912;2022-11-20T08:18:01;0.80;;;0.70;;
41275;SDS011;27010;47.718;12.912;2022-11-20T08:21:36;2.23;;;1.10;;
41275;SDS011;27010;47.718;12.912;2022-11-20T08:24:39;1.27;;;0.90;;
41275;SDS011;27010;47.718;12.912;2022-11-20T08:27:40;2.40;;;0.97;;
41275;SDS011;27010;47.718;12.912;2022-11-20T08:30:42;0.70;;;0.70;;
41275;SDS011;27010;47.718;12.912;2022-11-20T08:33:44;0.97;;;0.80;;
41275;SDS011;27010;47.718;12.912;2022-11-20T08:36:47;1.63;;;0.87;;
41275;SDS011;27010;47.718;12.912;2022-11-20T08:39:49;1.57;;;1.00;;
41275;SDS011;27010;47.718;12.912;2022-11-20T08:42:51;0.60;;;0.60;;
41275;SDS011;27010;47.718;12.912;2022-11-20T08:45:53;1.97;;;0.73;;
41275;SDS011;27010;47.718;12.912;2022-11-20T08:48:59;1.03;;;0.70;;
41275;SDS011;27010;47.718;12.912;2022-11-20T08:52:01;3.17;;;0.90;;
41275;SDS011;27010;47.718;12.912;2022-11-20T08:55:03;1.17;;;0.70;;
41275;SDS011;27010;47.718;12.912;2022-11-20T08:58:06;1.80;;;0.80;;
41275;SDS011;27010;47.718;12.912;2022-11-20T09:01:09;0.80;;;0.80;;
41275;SDS011;27010;47.718;12.912;2022-11-20T09:04:11;1.13;;;0.63;;
41275;SDS011;27010;47.718;12.912;2022-11-20T09:07:15;0.80;;;0.73;;
41275;SDS011;27010;47.718;12.912;2022-11-20T09:10:17;0.90;;;0.60;;
41275;SDS011;27010;47.718;12.912;2022-11-20T09:13:27;0.97;;;0.70;;
41275;SDS011;27010;47.718;12.912;2022-11-20T09:16:29;4.07;;;0.97;;
41275;SDS011;27010;47.718;12.912;2022-11-20T09:19:31;2.07;;;0.70;;
41275;SDS011;27010;47.718;12.912;2022-11-20T09:22:53;1.63;;;0.80;;
41275;SDS011;27010;47.718;12.912;2022-11-20T09:25:55;1.67;;;0.70;;
41275;SDS011;27010;47.718;12.912;2022-11-20T09:29:00;1.27;;;0.70;;
41275;SDS011;27010;47.718;12.912;2022-11-20T09:32:02;0.93;;;0.57;;
41275;SDS011;27010;47.718;12.912;2022-11-20T09:35:05;2.70;;;0.70;;
41275;SDS011;27010;47.718;12.912;2022-11-20T09:38:07;1.47;;;0.73;;
41275;SDS011;27010;47.718;12.912;2022-11-20T09:41:36;1.53;;;0.60;;
41275;SDS011;27010;47.718;12.912;2022-11-20T09:51:59;0.70;;;0.50;;
41275;SDS011;27010;47.718;12.912;2022-11-20T09:55:03;0.70;;;0.57;;
41275;SDS011;27010;47.718;12.912;2022-11-20T09:58:06;0.90;;;0.60;;
41275;SDS011;27010;47.718;12.912;2022-11-20T10:01:13;1.27;;;1.17;;
41275;SDS011;27010;47.718;12.912;2022-11-20T10:04:18;5.40;;;4.17;;
41275;SDS011;27010;47.718;12.912;2022-11-20T10:07:23;2.37;;;1.70;;
41275;SDS011;27010;47.718;12.912;2022-11-20T10:10:36;3.03;;;0.97;;
41275;SDS011;27010;47.718;12.912;2022-11-20T10:13:53;3.20;;;0.97;;
41275;SDS011;27010;47.718;12.912;2022-11-20T10:31:44;1.57;;;0.80;;
41275;SDS011;27010;47.718;12.912;2022-11-20T10:34:51;1.77;;;0.80;;
41275;SDS011;27010;47.718;12.912;2022-11-20T10:38:05;0.70;;;0.60;;
41275;SDS011;27010;47.718;12.912;2022-11-20T10:41:22;0.80;;;0.43;;
41275;SDS011;27010;47.718;12.912;2022-11-20T10:44:27;0.80;;;0.53;;
41275;SDS011;27010;47.718;12.912;2022-11-20T10:48:20;0.80;;;0.77;;
41275;SDS011;27010;47.718;12.912;2022-11-20T10:58:01;0.93;;;0.60;;
41275;SDS011;27010;47.718;12.912;2022-11-20T11:01:20;0.63;;;0.53;;
41275;SDS011;27010;47.718;12.912;2022-11-20T11:07:31;0.90;;;0.70;;
41275;SDS011;27010;47.718;12.912;2022-11-20T11:10:45;0.40;;;0.37;;
41275;SDS011;27010;47.718;12.912;2022-11-20T11:14:05;0.30;;;0.30;;
41275;SDS011;27010;47.718;12.912;2022-11-20T11:17:23;2.20;;;0.30;;
41275;SDS011;27010;47.718;12.912;2022-11-20T11:20:30;0.80;;;0.53;;
41275;SDS011;27010;47.718;12.912;2022-11-20T11:23:34;0.50;;;0.43;;
41275;SDS011;27010;47.718;12.912;2022-11-20T11:26:38;1.37;;;0.90;;
41275;SDS011;27010;47.718;12.912;2022-11-20T11:29:40;0.40;;;0.30;;
41275;SDS011;27010;47.718;12.912;2022-11-20T11:32:42;1.40;;;0.47;;
41275;SDS011;27010;47.718;12.912;2022-11-20T11:35:45;1.77;;;0.40;;
41275;SDS011;27010;47.718;12.912;2022-11-20T11:38:54;0.60;;;0.50;;
41275;SDS011;27010;47.718;12.912;2022-11-20T11:41:57;1.00;;;0.80;;
41275;SDS011;27010;47.718;12.912;2022-11-20T11:45:00;0.87;;;0.60;;
41275;SDS011;27010;47.718;12.912;2022-11-20T11:48:09;0.67;;;0.50;;
41275;SDS011;27010;47.718;12.912;2022-11-20T11:51:11;0.40;;;0.40;;
41275;SDS011;27010;47.718;12.912;2022-11-20T11:54:17;1.13;;;0.60;;
41275;SDS011;27010;47.718;12.912;2022-11-20T12:00:30;1.20;;;0.50;;
41275;SDS011;27010;47.718;12.912;2022-11-20T12:03:36;0.57;;;0.50;;
41275;SDS011;27010;47.718;12.912;2022-11-20T12:06:41;0.40;;;0.40;;
41275;SDS011;27010;47.718;12.912;2022-11-20T12:09:46;1.20;;;0.50;;
41275;SDS011;27010;47.718;12.912;2022-11-20T12:12:53;1.07;;;0.53;;
41275;SDS011;27010;47.718;12.912;2022-11-20T12:15:59;0.60;;;0.40;;
41275;SDS011;27010;47.718;12.912;2022-11-20T12:19:04;1.50;;;0.30;;
41275;SDS011;27010;47.718;12.912;2022-11-20T12:25:35;0.83;;;0.60;;
41275;SDS011;27010;47.718;12.912;2022-11-20T12:35:36;1.80;;;0.30;;
41275;SDS011;27010;47.718;12.912;2022-11-20T12:45:54;0.37;;;0.37;;
41275;SDS011;27010;47.718;12.912;2022-11-20T12:52:56;1.23;;;0.70;;
41275;SDS011;27010;47.718;12.912;2022-11-20T13:02:29;1.07;;;0.30;;
41275;SDS011;27010;47.718;12.912;2022-11-20T13:09:15;2.17;;;1.43;;
41275;SDS011;27010;47.718;12.912;2022-11-20T13:15:40;1.97;;;0.50;;
41275;SDS011;27010;47.718;12.912;2022-11-20T13:18:56;0.97;;;0.70;;
41275;SDS011;27010;47.718;12.912;2022-11-20T13:22:07;0.90;;;0.60;;
41275;SDS011;27010;47.718;12.912;2022-11-20T13:25:22;0.70;;;0.50;;
41275;SDS011;27010;47.718;12.912;2022-11-20T13:28:31;0.70;;;0.40;;
41275;SDS011;27010;47.718;12.912;2022-11-20T13:31:34;0.50;;;0.50;;
41275;SDS011;27010;47.718;12.912;2022-11-20T13:34:37;1.13;;;0.87;;
41275;SDS011;27010;47.718;12.912;2022-11-20T13:37:39;2.50;;;0.70;;
41275;SDS011;27010;47.718;12.912;2022-11-20T13:40:51;2.83;;;0.60;;
41275;SDS011;27010;47.718;12.912;2022-11-20T13:43:54;1.00;;;0.70;;
41275;SDS011;27010;47.718;12.912;2022-11-20T13:47:03;1.20;;;0.93;;
41275;SDS011;27010;47.718;12.912;2022-11-20T13:50:08;1.13;;;0.73;;
41275;SDS011;27010;47.718;12.912;2022-11-20T13:53:32;4.70;;;4.00;;
41275;SDS011;27010;47.718;12.912;2022-11-20T14:00:09;8.23;;;7.37;;
41275;SDS011;27010;47.718;12.912;2022-11-20T14:03:23;3.30;;;3.00;;
41275;SDS011;27010;47.718;12.912;2022-11-20T14:06:46;0.70;;;0.70;;
41275;SDS011;27010;47.718;12.912;2022-11-20T14:09:50;0.33;;;0.33;;
41275;SDS011;27010;47.718;12.912;2022-11-20T14:12:56;1.90;;;0.60;;
41275;SDS011;27010;47.718;12.912;2022-11-20T14:15:58;3.33;;;2.30;;
41275;SDS011;27010;47.718;12.912;2022-11-20T14:19:23;0.30;;;0.20;;
41275;SDS011;27010;47.718;12.912;2022-11-20T14:22:23;3.77;;;0.43;;
41275;SDS011;27010;47.718;12.912;2022-11-20T14:25:26;1.10;;;1.00;;
41275;SDS011;27010;47.718;12.912;2022-11-20T14:28:29;2.53;;;0.90;;
41275;SDS011;27010;47.718;12.912;2022-11-20T14:31:32;1.37;;;0.80;;
41275;SDS011;27010;47.718;12.912;2022-11-20T14:34:35;0.70;;;0.70;;
41275;SDS011;27010;47.718;12.912;2022-11-20T14:37:40;0.83;;;0.80;;
41275;SDS011;27010;47.718;12.912;2022-11-20T14:40:42;1.17;;;0.50;;
41275;SDS011;27010;47.718;12.912;2022-11-20T14:43:45;1.90;;;1.60;;
41275;SDS011;27010;47.718;12.912;2022-11-20T14:46:59;1.50;;;1.33;;
41275;SDS011;27010;47.718;12.912;2022-11-20T14:50:02;0.80;;;0.80;;
41275;SDS011;27010;47.718;12.912;2022-11-20T14:53:10;0.37;;;0.37;;
41275;SDS011;27010;47.718;12.912;2022-11-20T14:56:12;0.30;;;0.30;;
41275;SDS011;27010;47.718;12.912;2022-11-20T14:59:24;0.60;;;0.50;;
41275;SDS011;27010;47.718;12.912;2022-11-20T15:02:28;2.27;;;0.43;;
41275;SDS011;27010;47.718;12.912;2022-11-20T15:05:45;0.37;;;0.30;;
41275;SDS011;27010;47.718;12.912;2022-11-20T15:08:51;2.93;;;1.80;;
41275;SDS011;27010;47.718;12.912;2022-11-20T15:11:58;3.87;;;2.57;;
41275;SDS011;27010;47.718;12.912;2022-11-20T15:15:08;1.70;;;1.60;;
41275;SDS011;27010;47.718;12.912;2022-11-20T15:18:13;0.93;;;0.70;;
41275;SDS011;27010;47.718;12.912;2022-11-20T15:21:18;12.27;;;4.40;;
41275;SDS011;27010;47.718;12.912;2022-11-20T15:24:22;5.73;;;2.17;;
41275;SDS011;27010;47.718;12.912;2022-11-20T15:27:24;1.60;;;1.10;;
41275;SDS011;27010;47.718;12.912;2022-11-20T15:30:26;4.03;;;1.73;;
41275;SDS011;27010;47.718;12.912;2022-11-20T15:33:29;3.03;;;1.90;;
41275;SDS011;27010;47.718;12.912;2022-11-20T15:36:32;1.53;;;0.90;;
41275;SDS011;27010;47.718;12.912;2022-11-20T15:39:33;0.70;;;0.60;;
41275;SDS011;27010;47.718;12.912;2022-11-20T15:42:36;1.37;;;1.10;;
41275;SDS011;27010;47.718;12.912;2022-11-20T15:45:45;1.77;;;1.00;;
41275;SDS011;27010;47.718;12.912;2022-11-20T15:48:51;2.03;;;0.93;;
41275;SDS011;27010;47.718;12.912;2022-11-20T15:51:55;1.83;;;1.00;;
41275;SDS011;27010;47.718;12.912;2022-11-20T15:54:57;3.73;;;2.40;;
41275;SDS011;27010;47.718;12.912;2022-11-20T15:57:59;3.93;;;3.03;;
41275;SDS011;27010;47.718;12.912;2022-11-20T16:01:02;1.50;;;1.30;;
41275;SDS011;27010;47.718;12.912;2022-11-20T16:04:05;1.07;;;0.90;;
41275;SDS011;27010;47.718;12.912;2022-11-20T16:07:11;0.70;;;0.60;;
41275;SDS011;27010;47.718;12.912;2022-11-20T16:10:13;2.60;;;2.17;;
41275;SDS011;27010;47.718;12.912;2022-11-20T16:13:16;3.67;;;2.40;;
41275;SDS011;27010;47.718;12.912;2022-11-20T16:16:37;1.90;;;0.90;;
41275;SDS011;27010;47.718;12.912;2022-11-20T16:19:42;1.10;;;0.90;;
41275;SDS011;27010;47.718;12.912;2022-11-20T16:22:44;2.80;;;2.13;;
41275;SDS011;27010;47.718;12.912;2022-11-20T16:25:47;1.97;;;1.30;;
41275;SDS011;27010;47.718;12.912;2022-11-20T16:28:49;2.07;;;1.17;;
41275;SDS011;27010;47.718;12.912;2022-11-20T16:31:51;2.87;;;2.20;;
41275;SDS011;27010;47.718;12.912;2022-11-20T16:34:54;4.37;;;3.50;;
41275;SDS011;27010;47.718;12.912;2022-11-20T16:38:06;5.27;;;2.67;;
41275;SDS011;27010;47.718;12.912;2022-11-20T16:41:08;4.17;;;3.43;;
41275;SDS011;27010;47.718;12.912;2022-11-20T16:44:14;3.17;;;2.57;;
41275;SDS011;27010;47.718;12.912;2022-11-20T16:47:16;3.67;;;2.60;;
41275;SDS011;27010;47.718;12.912;2022-11-20T16:50:18;0.70;;;0.67;;
41275;SDS011;27010;47.718;12.912;2022-11-20T16:53:21;1.40;;;0.90;;
41275;SDS011;27010;47.718;12.912;2022-11-20T16:56:25;0.70;;;0.70;;
41275;SDS011;27010;47.718;12.912;2022-11-20T16:59:27;1.53;;;0.90;;
41275;SDS011;27010;47.718;12.912;2022-11-20T17:02:29;2.63;;;2.30;;
41275;SDS011;27010;47.718;12.912;2022-11-20T17:05:31;7.57;;;4.83;;
41275;SDS011;27010;47.718;12.912;2022-11-20T17:08:34;10.47;;;7.73;;
41275;SDS011;27010;47.718;12.912;2022-11-20T17:11:36;7.23;;;4.43;;
41275;SDS011;27010;47.718;12.912;2022-11-20T17:14:38;4.27;;;3.00;;
41275;SDS011;27010;47.718;12.912;2022-11-20T17:17:40;2.57;;;1.90;;
41275;SDS011;27010;47.718;12.912;2022-11-20T17:20:45;4.27;;;1.73;;
41275;SDS011;27010;47.718;12.912;2022-11-20T17:23:52;0.77;;;0.60;;
41275;SDS011;27010;47.718;12.912;2022-11-20T17:26:54;0.93;;;0.60;;
41275;SDS011;27010;47.718;12.912;2022-11-20T17:29:57;0.97;;;0.67;;
41275;SDS011;27010;47.718;12.912;2022-11-20T17:32:59;0.80;;;0.60;;
41275;SDS011;27010;47.718;12.912;2022-11-20T17:36:01;2.63;;;0.80;;
41275;SDS011;27010;47.718;12.912;2022-11-20T17:39:04;1.10;;;0.70;;
41275;SDS011;27010;47.718;12.912;2022-11-20T17:42:06;0.87;;;0.50;;
41275;SDS011;27010;47.718;12.912;2022-11-20T17:45:27;0.70;;;0.60;;
41275;SDS011;27010;47.718;12.912;2022-11-20T17:48:29;1.23;;;0.50;;
41275;SDS011;27010;47.718;12.912;2022-11-20T17:51:32;0.60;;;0.40;;
41275;SDS011;27010;47.718;12.912;2022-11-20T17:54:35;1.07;;;0.50;;
41275;SDS011;27010;47.718;12.912;2022-11-20T17:57:37;3.87;;;1.60;;
41275;SDS011;27010;47.718;12.912;2022-11-20T18:01:03;3.60;;;1.80;;
41275;SDS011;27010;47.718;12.912;2022-11-20T18:04:09;1.50;;;0.77;;
41275;SDS011;27010;47.718;12.912;2022-11-20T18:07:11;0.97;;;0.60;;
41275;SDS011;27010;47.718;12.912;2022-11-20T18:10:13;1.10;;;0.50;;
41275;SDS011;27010;47.718;12.912;2022-11-20T18:13:15;0.50;;;0.47;;
41275;SDS011;27010;47.718;12.912;2022-11-20T18:16:17;1.33;;;0.70;;
41275;SDS011;27010;47.718;12.912;2022-11-20T18:19:20;4.23;;;0.70;;
41275;SDS011;27010;47.718;12.912;2022-11-20T18:22:32;0.70;;;0.60;;
41275;SDS011;27010;47.718;12.912;2022-11-20T18:25:34;1.20;;;0.70;;
41275;SDS011;27010;47.718;12.912;2022-11-20T18:28:36;2.70;;;0.70;;
41275;SDS011;27010;47.718;12.912;2022-11-20T18:31:39;1.43;;;0.60;;
41275;SDS011;27010;47.718;12.912;2022-11-20T18:34:42;3.40;;;0.90;;
41275;SDS011;27010;47.718;12.912;2022-11-20T18:37:44;0.87;;;0.70;;
41275;SDS011;27010;47.718;12.912;2022-11-20T18:40:46;1.93;;;0.70;;
41275;SDS011;27010;47.718;12.912;2022-11-20T18:43:48;1.33;;;0.80;;
41275;SDS011;27010;47.718;12.912;2022-11-20T18:47:11;5.53;;;1.20;;
41275;SDS011;27010;47.718;12.912;2022-11-20T18:50:16;0.97;;;0.83;;
41275;SDS011;27010;47.718;12.912;2022-11-20T18:53:20;1.40;;;0.77;;
41275;SDS011;27010;47.718;12.912;2022-11-20T18:56:22;2.23;;;0.80;;
41275;SDS011;27010;47.718;12.912;2022-11-20T18:59:24;1.43;;;0.73;;
41275;SDS011;27010;47.718;12.912;2022-11-20T19:02:26;2.37;;;1.03;;
41275;SDS011;27010;47.718;12.912;2022-11-20T19:05:29;2.80;;;0.80;;
41275;SDS011;27010;47.718;12.912;2022-11-20T19:08:33;2.83;;;1.00;;
41275;SDS011;27010;47.718;12.912;2022-11-20T19:11:35;1.80;;;0.90;;
41275;SDS011;27010;47.718;12.912;2022-11-20T19:14:39;1.70;;;1.00;;
41275;SDS011;27010;47.718;12.912;2022-11-20T19:17:46;3.07;;;0.90;;
41275;SDS011;27010;47.718;12.912;2022-11-20T19:20:48;3.70;;;1.30;;
41275;SDS011;27010;47.718;12.912;2022-11-20T19:23:52;2.83;;;1.03;;
41275;SDS011;27010;47.718;12.912;2022-11-20T19:26:55;2.83;;;1.40;;
41275;SDS011;27010;47.718;12.912;2022-11-20T19:29:58;5.53;;;1.77;;
41275;SDS011;27010;47.718;12.912;2022-11-20T19:33:04;1.83;;;0.93;;
41275;SDS011;27010;47.718;12.912;2022-11-20T19:36:19;1.67;;;1.10;;